sensor_id;sensor_type;location;lat;lon;timestamp;temperature;humidity
33988;DHT22;37428;53.580;-1.666;2023-09-19T00:01:55;10.70;87.00
33988;DHT22;37428;53.580;-1.666;2023-09-19T00:04:58;10.80;87.10
33988;DHT22;37428;53.580;-1.666;2023-09-19T00:08:04;10.70;86.20
33988;DHT22;37428;53.580;-1.666;2023-09-19T00:11:08;10.70;86.10
33988;DHT22;37428;53.580;-1.666;2023-09-19T00:14:11;10.70;86.20
33988;DHT22;37428;53.580;-1.666;2023-09-19T00:17:15;10.70;85.70
33988;DHT22;37428;53.580;-1.666;2023-09-19T00:20:17;10.70;86.30
33988;DHT22;37428;53.580;-1.666;2023-09-19T00:23:19;10.70;86.30
33988;DHT22;37428;53.580;-1.666;2023-09-19T00:26:23;10.60;86.40
33988;DHT22;37428;53.580;-1.666;2023-09-19T00:29:25;10.60;86.60
33988;DHT22;37428;53.580;-1.666;2023-09-19T00:32:29;10.60;86.70
33988;DHT22;37428;53.580;-1.666;2023-09-19T00:35:32;10.60;87.10
33988;DHT22;37428;53.580;-1.666;2023-09-19T00:38:34;10.50;87.40
33988;DHT22;37428;53.580;-1.666;2023-09-19T00:41:38;10.50;87.50
33988;DHT22;37428;53.580;-1.666;2023-09-19T00:44:41;10.50;88.00
33988;DHT22;37428;53.580;-1.666;2023-09-19T00:47:44;10.50;87.80
33988;DHT22;37428;53.580;-1.666;2023-09-19T00:50:47;10.50;88.10
33988;DHT22;37428;53.580;-1.666;2023-09-19T00:53:50;10.50;88.10
33988;DHT22;37428;53.580;-1.666;2023-09-19T00:56:54;10.50;87.60
33988;DHT22;37428;53.580;-1.666;2023-09-19T00:59:57;10.60;87.60
33988;DHT22;37428;53.580;-1.666;2023-09-19T01:02:59;10.60;88.00
33988;DHT22;37428;53.580;-1.666;2023-09-19T01:06:03;10.60;87.80
33988;DHT22;37428;53.580;-1.666;2023-09-19T01:09:05;10.60;87.60
33988;DHT22;37428;53.580;-1.666;2023-09-19T01:12:12;10.60;87.50
33988;DHT22;37428;53.580;-1.666;2023-09-19T01:15:24;10.70;87.70
33988;DHT22;37428;53.580;-1.666;2023-09-19T01:18:38;10.60;87.60
33988;DHT22;37428;53.580;-1.666;2023-09-19T01:21:48;10.70;87.80
33988;DHT22;37428;53.580;-1.666;2023-09-19T01:25:13;10.70;88.10
33988;DHT22;37428;53.580;-1.666;2023-09-19T01:28:30;10.70;88.30
33988;DHT22;37428;53.580;-1.666;2023-09-19T01:31:40;10.70;88.40
33988;DHT22;37428;53.580;-1.666;2023-09-19T01:34:45;10.70;88.70
33988;DHT22;37428;53.580;-1.666;2023-09-19T01:37:49;10.70;88.50
33988;DHT22;37428;53.580;-1.666;2023-09-19T01:40:57;10.80;88.20
33988;DHT22;37428;53.580;-1.666;2023-09-19T01:44:04;10.70;88.20
33988;DHT22;37428;53.580;-1.666;2023-09-19T01:47:23;10.80;87.50
33988;DHT22;37428;53.580;-1.666;2023-09-19T01:50:30;10.80;87.20
33988;DHT22;37428;53.580;-1.666;2023-09-19T01:53:43;10.80;87.60
33988;DHT22;37428;53.580;-1.666;2023-09-19T01:56:52;10.80;87.80
33988;DHT22;37428;53.580;-1.666;2023-09-19T02:00:05;10.80;87.20
33988;DHT22;37428;53.580;-1.666;2023-09-19T02:03:11;10.80;87.10
33988;DHT22;37428;53.580;-1.666;2023-09-19T02:06:14;10.90;86.70
33988;DHT22;37428;53.580;-1.666;2023-09-19T02:09:18;10.90;86.70
33988;DHT22;37428;53.580;-1.666;2023-09-19T02:12:20;10.90;86.70
33988;DHT22;37428;53.580;-1.666;2023-09-19T02:15:22;10.90;86.70
33988;DHT22;37428;53.580;-1.666;2023-09-19T02:18:26;10.90;86.30
33988;DHT22;37428;53.580;-1.666;2023-09-19T02:21:29;10.90;86.60
33988;DHT22;37428;53.580;-1.666;2023-09-19T02:24:31;11.00;86.60
33988;DHT22;37428;53.580;-1.666;2023-09-19T02:27:33;10.90;86.20
33988;DHT22;37428;53.580;-1.666;2023-09-19T02:30:35;10.90;85.90
33988;DHT22;37428;53.580;-1.666;2023-09-19T02:33:39;10.90;85.90
33988;DHT22;37428;53.580;-1.666;2023-09-19T02:36:41;11.00;85.70
33988;DHT22;37428;53.580;-1.666;2023-09-19T02:39:44;11.00;85.80
33988;DHT22;37428;53.580;-1.666;2023-09-19T02:42:47;11.00;85.70
33988;DHT22;37428;53.580;-1.666;2023-09-19T02:45:50;11.00;86.20
33988;DHT22;37428;53.580;-1.666;2023-09-19T02:48:55;11.00;86.20
33988;DHT22;37428;53.580;-1.666;2023-09-19T02:51:57;11.00;86.50
33988;DHT22;37428;53.580;-1.666;2023-09-19T02:55:00;11.00;86.80
33988;DHT22;37428;53.580;-1.666;2023-09-19T02:58:02;11.00;87.20
33988;DHT22;37428;53.580;-1.666;2023-09-19T03:01:09;11.00;87.40
33988;DHT22;37428;53.580;-1.666;2023-09-19T03:04:14;11.00;87.50
33988;DHT22;37428;53.580;-1.666;2023-09-19T03:07:20;11.00;87.40
33988;DHT22;37428;53.580;-1.666;2023-09-19T03:10:23;11.10;87.20
33988;DHT22;37428;53.580;-1.666;2023-09-19T03:13:25;11.10;86.50
33988;DHT22;37428;53.580;-1.666;2023-09-19T03:16:27;11.20;85.90
33988;DHT22;37428;53.580;-1.666;2023-09-19T03:19:31;11.20;85.70
33988;DHT22;37428;53.580;-1.666;2023-09-19T03:22:34;11.20;86.10
33988;DHT22;37428;53.580;-1.666;2023-09-19T03:25:36;11.20;87.10
33988;DHT22;37428;53.580;-1.666;2023-09-19T03:28:38;11.20;87.20
33988;DHT22;37428;53.580;-1.666;2023-09-19T03:31:40;11.10;87.50
33988;DHT22;37428;53.580;-1.666;2023-09-19T03:34:44;11.20;87.90
33988;DHT22;37428;53.580;-1.666;2023-09-19T03:37:49;11.10;87.80
33988;DHT22;37428;53.580;-1.666;2023-09-19T03:40:53;11.10;88.50
33988;DHT22;37428;53.580;-1.666;2023-09-19T03:43:56;11.10;88.70
33988;DHT22;37428;53.580;-1.666;2023-09-19T03:46:58;11.10;89.00
33988;DHT22;37428;53.580;-1.666;2023-09-19T03:50:02;11.10;89.10
33988;DHT22;37428;53.580;-1.666;2023-09-19T03:53:04;11.00;89.30
33988;DHT22;37428;53.580;-1.666;2023-09-19T03:56:07;11.00;89.10
33988;DHT22;37428;53.580;-1.666;2023-09-19T03:59:10;11.00;89.70
33988;DHT22;37428;53.580;-1.666;2023-09-19T04:02:12;11.00;90.00
33988;DHT22;37428;53.580;-1.666;2023-09-19T04:05:24;11.00;90.20
33988;DHT22;37428;53.580;-1.666;2023-09-19T04:08:26;10.90;90.10
33988;DHT22;37428;53.580;-1.666;2023-09-19T04:11:28;10.90;90.90
33988;DHT22;37428;53.580;-1.666;2023-09-19T04:14:30;10.90;91.20
33988;DHT22;37428;53.580;-1.666;2023-09-19T04:17:33;10.80;91.30
33988;DHT22;37428;53.580;-1.666;2023-09-19T04:20:36;10.80;91.10
33988;DHT22;37428;53.580;-1.666;2023-09-19T04:23:39;10.70;91.10
33988;DHT22;37428;53.580;-1.666;2023-09-19T04:26:41;10.80;91.70
33988;DHT22;37428;53.580;-1.666;2023-09-19T04:29:44;10.70;91.10
33988;DHT22;37428;53.580;-1.666;2023-09-19T04:32:46;10.60;90.70
33988;DHT22;37428;53.580;-1.666;2023-09-19T04:35:52;10.60;90.70
33988;DHT22;37428;53.580;-1.666;2023-09-19T04:38:55;10.60;90.50
33988;DHT22;37428;53.580;-1.666;2023-09-19T04:41:57;10.60;90.40
33988;DHT22;37428;53.580;-1.666;2023-09-19T04:45:00;10.50;90.20
33988;DHT22;37428;53.580;-1.666;2023-09-19T04:48:02;10.50;90.20
33988;DHT22;37428;53.580;-1.666;2023-09-19T04:51:06;10.50;90.30
33988;DHT22;37428;53.580;-1.666;2023-09-19T04:54:08;10.50;90.30
33988;DHT22;37428;53.580;-1.666;2023-09-19T04:57:10;10.50;90.20
33988;DHT22;37428;53.580;-1.666;2023-09-19T05:00:14;10.50;90.30
33988;DHT22;37428;53.580;-1.666;2023-09-19T05:03:17;10.50;90.20
33988;DHT22;37428;53.580;-1.666;2023-09-19T05:06:23;10.50;90.80
33988;DHT22;37428;53.580;-1.666;2023-09-19T05:09:27;10.60;91.20
33988;DHT22;37428;53.580;-1.666;2023-09-19T05:12:29;10.60;91.70
33988;DHT22;37428;53.580;-1.666;2023-09-19T05:15:31;10.50;92.70
33988;DHT22;37428;53.580;-1.666;2023-09-19T05:18:33;10.40;93.10
33988;DHT22;37428;53.580;-1.666;2023-09-19T05:21:37;10.30;94.20
33988;DHT22;37428;53.580;-1.666;2023-09-19T05:24:39;10.30;94.70
33988;DHT22;37428;53.580;-1.666;2023-09-19T05:27:42;10.20;95.60
33988;DHT22;37428;53.580;-1.666;2023-09-19T05:30:44;10.10;96.40
33988;DHT22;37428;53.580;-1.666;2023-09-19T05:33:46;10.10;97.00
33988;DHT22;37428;53.580;-1.666;2023-09-19T05:36:50;10.10;97.70
33988;DHT22;37428;53.580;-1.666;2023-09-19T05:39:52;10.10;98.40
33988;DHT22;37428;53.580;-1.666;2023-09-19T05:42:55;10.10;98.90
33988;DHT22;37428;53.580;-1.666;2023-09-19T05:45:59;10.20;99.80
33988;DHT22;37428;53.580;-1.666;2023-09-19T05:49:01;10.10;99.90
33988;DHT22;37428;53.580;-1.666;2023-09-19T05:52:06;10.20;99.90
33988;DHT22;37428;53.580;-1.666;2023-09-19T05:55:08;10.20;99.90
33988;DHT22;37428;53.580;-1.666;2023-09-19T05:58:11;10.40;99.90
33988;DHT22;37428;53.580;-1.666;2023-09-19T06:01:14;10.60;99.90
33988;DHT22;37428;53.580;-1.666;2023-09-19T06:04:17;10.70;99.90
33988;DHT22;37428;53.580;-1.666;2023-09-19T06:07:21;10.90;99.90
33988;DHT22;37428;53.580;-1.666;2023-09-19T06:10:26;11.10;99.90
33988;DHT22;37428;53.580;-1.666;2023-09-19T06:13:29;11.20;99.90
33988;DHT22;37428;53.580;-1.666;2023-09-19T06:16:34;11.30;99.90
33988;DHT22;37428;53.580;-1.666;2023-09-19T06:19:36;11.50;99.90
33988;DHT22;37428;53.580;-1.666;2023-09-19T06:22:40;11.60;99.90
33988;DHT22;37428;53.580;-1.666;2023-09-19T06:25:43;11.80;99.90
33988;DHT22;37428;53.580;-1.666;2023-09-19T06:28:45;11.90;99.90
33988;DHT22;37428;53.580;-1.666;2023-09-19T06:31:47;12.10;99.90
33988;DHT22;37428;53.580;-1.666;2023-09-19T06:34:52;12.20;99.90
33988;DHT22;37428;53.580;-1.666;2023-09-19T06:37:56;12.30;99.90
33988;DHT22;37428;53.580;-1.666;2023-09-19T06:40:58;12.40;99.90
33988;DHT22;37428;53.580;-1.666;2023-09-19T06:44:01;12.40;99.90
33988;DHT22;37428;53.580;-1.666;2023-09-19T06:47:04;12.50;99.90
33988;DHT22;37428;53.580;-1.666;2023-09-19T06:50:07;12.50;99.90
33988;DHT22;37428;53.580;-1.666;2023-09-19T06:53:15;12.50;99.90
33988;DHT22;37428;53.580;-1.666;2023-09-19T06:56:17;12.60;99.90
33988;DHT22;37428;53.580;-1.666;2023-09-19T06:59:20;12.60;99.90
33988;DHT22;37428;53.580;-1.666;2023-09-19T07:02:22;12.60;99.90
33988;DHT22;37428;53.580;-1.666;2023-09-19T07:05:24;12.60;99.90
33988;DHT22;37428;53.580;-1.666;2023-09-19T07:08:29;12.70;99.90
33988;DHT22;37428;53.580;-1.666;2023-09-19T07:11:31;12.70;99.90
33988;DHT22;37428;53.580;-1.666;2023-09-19T07:14:34;12.70;99.90
33988;DHT22;37428;53.580;-1.666;2023-09-19T07:17:36;12.80;99.90
33988;DHT22;37428;53.580;-1.666;2023-09-19T07:20:38;12.90;99.90
33988;DHT22;37428;53.580;-1.666;2023-09-19T07:23:42;13.00;99.90
33988;DHT22;37428;53.580;-1.666;2023-09-19T07:26:45;13.10;99.90
33988;DHT22;37428;53.580;-1.666;2023-09-19T07:29:47;13.20;99.90
33988;DHT22;37428;53.580;-1.666;2023-09-19T07:32:49;13.20;99.90
33988;DHT22;37428;53.580;-1.666;2023-09-19T07:35:51;13.30;99.90
33988;DHT22;37428;53.580;-1.666;2023-09-19T07:38:57;13.40;99.90
33988;DHT22;37428;53.580;-1.666;2023-09-19T07:42:08;13.40;99.90
33988;DHT22;37428;53.580;-1.666;2023-09-19T07:45:12;13.50;99.90
33988;DHT22;37428;53.580;-1.666;2023-09-19T07:48:17;13.50;99.90
33988;DHT22;37428;53.580;-1.666;2023-09-19T07:51:19;13.60;99.90
33988;DHT22;37428;53.580;-1.666;2023-09-19T07:54:23;13.60;99.90
33988;DHT22;37428;53.580;-1.666;2023-09-19T07:57:25;13.80;99.90
33988;DHT22;37428;53.580;-1.666;2023-09-19T08:00:27;13.80;99.90
33988;DHT22;37428;53.580;-1.666;2023-09-19T08:03:29;13.90;99.90
33988;DHT22;37428;53.580;-1.666;2023-09-19T08:06:31;14.00;99.70
33988;DHT22;37428;53.580;-1.666;2023-09-19T08:09:35;14.10;99.90
33988;DHT22;37428;53.580;-1.666;2023-09-19T08:12:39;14.20;99.90
33988;DHT22;37428;53.580;-1.666;2023-09-19T08:15:46;14.30;99.30
33988;DHT22;37428;53.580;-1.666;2023-09-19T08:18:49;14.30;98.90
33988;DHT22;37428;53.580;-1.666;2023-09-19T08:21:56;14.40;99.30
33988;DHT22;37428;53.580;-1.666;2023-09-19T08:25:00;14.40;99.40
33988;DHT22;37428;53.580;-1.666;2023-09-19T08:28:05;14.50;99.70
33988;DHT22;37428;53.580;-1.666;2023-09-19T08:31:12;14.60;99.90
33988;DHT22;37428;53.580;-1.666;2023-09-19T08:34:14;14.60;99.90
33988;DHT22;37428;53.580;-1.666;2023-09-19T08:37:16;14.60;99.90
33988;DHT22;37428;53.580;-1.666;2023-09-19T08:40:21;14.80;99.90
33988;DHT22;37428;53.580;-1.666;2023-09-19T08:43:24;14.80;99.90
33988;DHT22;37428;53.580;-1.666;2023-09-19T08:46:27;15.00;99.90
33988;DHT22;37428;53.580;-1.666;2023-09-19T08:49:38;15.10;99.90
33988;DHT22;37428;53.580;-1.666;2023-09-19T08:52:44;15.20;99.90
33988;DHT22;37428;53.580;-1.666;2023-09-19T08:55:51;15.10;99.90
33988;DHT22;37428;53.580;-1.666;2023-09-19T08:58:57;15.10;99.90
33988;DHT22;37428;53.580;-1.666;2023-09-19T09:02:02;15.00;99.90
33988;DHT22;37428;53.580;-1.666;2023-09-19T09:05:06;15.00;99.90
33988;DHT22;37428;53.580;-1.666;2023-09-19T09:08:09;15.00;99.90
33988;DHT22;37428;53.580;-1.666;2023-09-19T09:11:13;15.00;99.90
33988;DHT22;37428;53.580;-1.666;2023-09-19T09:14:18;15.10;99.90
33988;DHT22;37428;53.580;-1.666;2023-09-19T09:17:20;15.20;99.90
33988;DHT22;37428;53.580;-1.666;2023-09-19T09:20:22;15.40;99.90
33988;DHT22;37428;53.580;-1.666;2023-09-19T09:23:27;15.60;99.90
33988;DHT22;37428;53.580;-1.666;2023-09-19T09:26:43;15.80;99.90
33988;DHT22;37428;53.580;-1.666;2023-09-19T09:29:46;16.00;99.90
33988;DHT22;37428;53.580;-1.666;2023-09-19T09:33:07;16.20;99.90
33988;DHT22;37428;53.580;-1.666;2023-09-19T09:36:11;16.20;99.90
33988;DHT22;37428;53.580;-1.666;2023-09-19T09:39:13;16.10;99.90
33988;DHT22;37428;53.580;-1.666;2023-09-19T09:42:33;16.20;99.90
33988;DHT22;37428;53.580;-1.666;2023-09-19T09:45:39;16.40;99.80
33988;DHT22;37428;53.580;-1.666;2023-09-19T09:49:01;16.60;99.90
33988;DHT22;37428;53.580;-1.666;2023-09-19T09:52:26;16.70;99.30
33988;DHT22;37428;53.580;-1.666;2023-09-19T09:55:30;16.80;99.30
33988;DHT22;37428;53.580;-1.666;2023-09-19T09:58:53;17.10;98.50
33988;DHT22;37428;53.580;-1.666;2023-09-19T10:02:01;17.20;96.60
33988;DHT22;37428;53.580;-1.666;2023-09-19T10:05:12;17.30;96.50
33988;DHT22;37428;53.580;-1.666;2023-09-19T10:08:22;17.50;96.20
33988;DHT22;37428;53.580;-1.666;2023-09-19T10:11:24;17.60;95.40
33988;DHT22;37428;53.580;-1.666;2023-09-19T10:14:35;17.70;95.80
33988;DHT22;37428;53.580;-1.666;2023-09-19T10:17:40;17.90;95.20
33988;DHT22;37428;53.580;-1.666;2023-09-19T10:20:45;18.00;94.30
33988;DHT22;37428;53.580;-1.666;2023-09-19T10:23:50;18.10;93.80
33988;DHT22;37428;53.580;-1.666;2023-09-19T10:26:59;18.00;94.60
33988;DHT22;37428;53.580;-1.666;2023-09-19T10:30:05;18.00;94.40
33988;DHT22;37428;53.580;-1.666;2023-09-19T10:33:09;17.90;94.70
33988;DHT22;37428;53.580;-1.666;2023-09-19T10:36:14;17.90;94.60
33988;DHT22;37428;53.580;-1.666;2023-09-19T10:39:17;17.90;94.90
33988;DHT22;37428;53.580;-1.666;2023-09-19T10:42:20;18.20;95.10
33988;DHT22;37428;53.580;-1.666;2023-09-19T10:45:29;18.30;94.90
33988;DHT22;37428;53.580;-1.666;2023-09-19T10:48:32;18.50;93.90
33988;DHT22;37428;53.580;-1.666;2023-09-19T10:51:40;18.70;93.40
33988;DHT22;37428;53.580;-1.666;2023-09-19T10:54:46;18.60;92.80
33988;DHT22;37428;53.580;-1.666;2023-09-19T10:57:53;18.60;93.70
33988;DHT22;37428;53.580;-1.666;2023-09-19T11:01:13;18.50;94.00
33988;DHT22;37428;53.580;-1.666;2023-09-19T11:04:23;18.30;94.10
33988;DHT22;37428;53.580;-1.666;2023-09-19T11:07:26;18.30;94.90
33988;DHT22;37428;53.580;-1.666;2023-09-19T11:10:46;18.30;94.70
33988;DHT22;37428;53.580;-1.666;2023-09-19T11:14:14;18.50;95.00
33988;DHT22;37428;53.580;-1.666;2023-09-19T11:17:42;18.70;94.80
33988;DHT22;37428;53.580;-1.666;2023-09-19T11:20:46;18.80;94.80
33988;DHT22;37428;53.580;-1.666;2023-09-19T11:24:28;18.70;93.90
33988;DHT22;37428;53.580;-1.666;2023-09-19T11:27:32;18.60;94.30
33988;DHT22;37428;53.580;-1.666;2023-09-19T11:30:38;18.60;94.20
33988;DHT22;37428;53.580;-1.666;2023-09-19T11:33:42;18.60;94.80
33988;DHT22;37428;53.580;-1.666;2023-09-19T11:36:47;18.70;95.10
33988;DHT22;37428;53.580;-1.666;2023-09-19T11:40:07;18.90;94.70
33988;DHT22;37428;53.580;-1.666;2023-09-19T11:43:29;19.10;93.80
33988;DHT22;37428;53.580;-1.666;2023-09-19T11:46:53;19.10;92.80
33988;DHT22;37428;53.580;-1.666;2023-09-19T11:49:57;19.10;93.90
33988;DHT22;37428;53.580;-1.666;2023-09-19T11:53:00;19.20;93.20
33988;DHT22;37428;53.580;-1.666;2023-09-19T11:56:06;19.30;92.90
33988;DHT22;37428;53.580;-1.666;2023-09-19T11:59:11;19.30;92.60
33988;DHT22;37428;53.580;-1.666;2023-09-19T12:02:27;19.30;92.60
33988;DHT22;37428;53.580;-1.666;2023-09-19T12:05:34;19.20;91.80
33988;DHT22;37428;53.580;-1.666;2023-09-19T12:08:39;19.00;92.80
33988;DHT22;37428;53.580;-1.666;2023-09-19T12:11:43;19.00;93.10
33988;DHT22;37428;53.580;-1.666;2023-09-19T12:14:48;18.90;93.60
33988;DHT22;37428;53.580;-1.666;2023-09-19T12:17:52;18.80;94.60
33988;DHT22;37428;53.580;-1.666;2023-09-19T12:20:56;18.80;94.60
33988;DHT22;37428;53.580;-1.666;2023-09-19T12:24:07;18.90;95.30
33988;DHT22;37428;53.580;-1.666;2023-09-19T12:27:14;18.80;94.20
33988;DHT22;37428;53.580;-1.666;2023-09-19T12:30:16;18.80;94.90
33988;DHT22;37428;53.580;-1.666;2023-09-19T12:33:20;18.80;94.80
33988;DHT22;37428;53.580;-1.666;2023-09-19T12:36:23;18.70;93.80
33988;DHT22;37428;53.580;-1.666;2023-09-19T12:39:30;18.70;95.30
33988;DHT22;37428;53.580;-1.666;2023-09-19T12:42:32;18.60;95.40
33988;DHT22;37428;53.580;-1.666;2023-09-19T12:45:36;18.50;95.40
33988;DHT22;37428;53.580;-1.666;2023-09-19T12:48:39;18.30;95.10
33988;DHT22;37428;53.580;-1.666;2023-09-19T12:51:49;18.30;95.00
33988;DHT22;37428;53.580;-1.666;2023-09-19T12:54:53;18.20;95.70
33988;DHT22;37428;53.580;-1.666;2023-09-19T12:58:07;18.20;97.20
33988;DHT22;37428;53.580;-1.666;2023-09-19T13:01:14;18.30;97.00
33988;DHT22;37428;53.580;-1.666;2023-09-19T13:04:17;18.40;96.20
33988;DHT22;37428;53.580;-1.666;2023-09-19T13:07:42;18.50;96.10
33988;DHT22;37428;53.580;-1.666;2023-09-19T13:11:06;18.40;96.30
33988;DHT22;37428;53.580;-1.666;2023-09-19T13:14:15;18.30;96.20
33988;DHT22;37428;53.580;-1.666;2023-09-19T13:17:17;18.30;96.90
33988;DHT22;37428;53.580;-1.666;2023-09-19T13:20:22;18.30;97.60
33988;DHT22;37428;53.580;-1.666;2023-09-19T13:23:29;18.30;97.70
33988;DHT22;37428;53.580;-1.666;2023-09-19T13:26:32;18.30;97.70
33988;DHT22;37428;53.580;-1.666;2023-09-19T13:29:34;18.20;97.50
33988;DHT22;37428;53.580;-1.666;2023-09-19T13:32:36;18.30;97.70
33988;DHT22;37428;53.580;-1.666;2023-09-19T13:35:41;18.20;97.60
33988;DHT22;37428;53.580;-1.666;2023-09-19T13:38:44;18.00;98.00
33988;DHT22;37428;53.580;-1.666;2023-09-19T13:41:49;18.00;99.20
33988;DHT22;37428;53.580;-1.666;2023-09-19T13:44:51;17.90;99.20
33988;DHT22;37428;53.580;-1.666;2023-09-19T13:47:54;17.90;99.50
33988;DHT22;37428;53.580;-1.666;2023-09-19T13:50:56;17.90;99.70
33988;DHT22;37428;53.580;-1.666;2023-09-19T13:53:59;17.80;99.60
33988;DHT22;37428;53.580;-1.666;2023-09-19T13:57:02;17.90;99.90
33988;DHT22;37428;53.580;-1.666;2023-09-19T14:00:05;17.80;99.00
33988;DHT22;37428;53.580;-1.666;2023-09-19T14:03:10;17.80;99.90
33988;DHT22;37428;53.580;-1.666;2023-09-19T14:06:13;17.80;99.90
33988;DHT22;37428;53.580;-1.666;2023-09-19T14:09:16;17.80;99.90
33988;DHT22;37428;53.580;-1.666;2023-09-19T14:12:20;17.80;99.90
33988;DHT22;37428;53.580;-1.666;2023-09-19T14:15:22;17.70;99.90
33988;DHT22;37428;53.580;-1.666;2023-09-19T14:18:30;17.70;99.90
33988;DHT22;37428;53.580;-1.666;2023-09-19T14:21:32;17.80;99.90
33988;DHT22;37428;53.580;-1.666;2023-09-19T14:24:35;17.80;99.90
33988;DHT22;37428;53.580;-1.666;2023-09-19T14:27:37;17.80;99.80
33988;DHT22;37428;53.580;-1.666;2023-09-19T14:30:39;17.90;99.90
33988;DHT22;37428;53.580;-1.666;2023-09-19T14:33:42;17.80;99.90
33988;DHT22;37428;53.580;-1.666;2023-09-19T14:36:44;17.70;99.00
33988;DHT22;37428;53.580;-1.666;2023-09-19T14:39:48;17.80;98.10
33988;DHT22;37428;53.580;-1.666;2023-09-19T14:42:50;17.70;99.00
33988;DHT22;37428;53.580;-1.666;2023-09-19T14:45:52;17.70;99.60
33988;DHT22;37428;53.580;-1.666;2023-09-19T14:48:56;17.60;99.90
33988;DHT22;37428;53.580;-1.666;2023-09-19T14:52:07;17.50;99.90
33988;DHT22;37428;53.580;-1.666;2023-09-19T14:55:10;17.40;99.90
33988;DHT22;37428;53.580;-1.666;2023-09-19T14:58:14;17.30;99.90
33988;DHT22;37428;53.580;-1.666;2023-09-19T15:01:17;17.30;99.90
33988;DHT22;37428;53.580;-1.666;2023-09-19T15:04:19;17.20;99.90
33988;DHT22;37428;53.580;-1.666;2023-09-19T15:07:21;17.30;99.90
33988;DHT22;37428;53.580;-1.666;2023-09-19T15:10:25;17.30;99.00
33988;DHT22;37428;53.580;-1.666;2023-09-19T15:13:27;17.20;98.60
33988;DHT22;37428;53.580;-1.666;2023-09-19T15:16:30;17.20;98.90
33988;DHT22;37428;53.580;-1.666;2023-09-19T15:19:33;17.20;98.40
33988;DHT22;37428;53.580;-1.666;2023-09-19T15:22:37;17.20;98.20
33988;DHT22;37428;53.580;-1.666;2023-09-19T15:25:47;17.20;99.10
33988;DHT22;37428;53.580;-1.666;2023-09-19T15:28:52;17.20;99.80
33988;DHT22;37428;53.580;-1.666;2023-09-19T15:31:55;17.10;99.90
33988;DHT22;37428;53.580;-1.666;2023-09-19T15:35:03;17.10;99.90
33988;DHT22;37428;53.580;-1.666;2023-09-19T15:38:05;17.10;99.90
33988;DHT22;37428;53.580;-1.666;2023-09-19T15:41:13;17.00;99.70
33988;DHT22;37428;53.580;-1.666;2023-09-19T15:44:16;17.00;99.90
33988;DHT22;37428;53.580;-1.666;2023-09-19T15:47:21;17.00;99.90
33988;DHT22;37428;53.580;-1.666;2023-09-19T15:50:23;17.00;99.90
33988;DHT22;37428;53.580;-1.666;2023-09-19T15:53:26;17.00;99.90
33988;DHT22;37428;53.580;-1.666;2023-09-19T15:56:30;17.00;99.90
33988;DHT22;37428;53.580;-1.666;2023-09-19T15:59:32;17.00;99.90
33988;DHT22;37428;53.580;-1.666;2023-09-19T16:02:34;16.90;99.60
33988;DHT22;37428;53.580;-1.666;2023-09-19T16:05:36;16.90;99.60
33988;DHT22;37428;53.580;-1.666;2023-09-19T16:08:40;16.90;99.70
33988;DHT22;37428;53.580;-1.666;2023-09-19T16:11:44;16.90;99.30
33988;DHT22;37428;53.580;-1.666;2023-09-19T16:14:46;16.90;98.80
33988;DHT22;37428;53.580;-1.666;2023-09-19T16:17:48;17.00;98.70
33988;DHT22;37428;53.580;-1.666;2023-09-19T16:20:50;17.00;98.90
33988;DHT22;37428;53.580;-1.666;2023-09-19T16:23:53;17.00;98.80
33988;DHT22;37428;53.580;-1.666;2023-09-19T16:26:57;17.00;98.50
33988;DHT22;37428;53.580;-1.666;2023-09-19T16:30:00;17.00;98.60
33988;DHT22;37428;53.580;-1.666;2023-09-19T16:33:02;16.90;98.00
33988;DHT22;37428;53.580;-1.666;2023-09-19T16:36:07;17.00;98.10
33988;DHT22;37428;53.580;-1.666;2023-09-19T16:39:12;17.00;98.70
33988;DHT22;37428;53.580;-1.666;2023-09-19T16:42:15;17.00;97.90
33988;DHT22;37428;53.580;-1.666;2023-09-19T16:45:17;16.90;98.00
33988;DHT22;37428;53.580;-1.666;2023-09-19T16:48:20;16.90;98.10
33988;DHT22;37428;53.580;-1.666;2023-09-19T16:51:22;16.90;97.50
33988;DHT22;37428;53.580;-1.666;2023-09-19T16:54:26;16.90;97.80
33988;DHT22;37428;53.580;-1.666;2023-09-19T16:57:29;16.90;98.10
33988;DHT22;37428;53.580;-1.666;2023-09-19T17:00:37;16.90;97.70
33988;DHT22;37428;53.580;-1.666;2023-09-19T17:03:40;16.90;97.10
33988;DHT22;37428;53.580;-1.666;2023-09-19T17:06:42;17.00;96.80
33988;DHT22;37428;53.580;-1.666;2023-09-19T17:09:47;17.00;96.00
33988;DHT22;37428;53.580;-1.666;2023-09-19T17:12:50;16.90;95.80
33988;DHT22;37428;53.580;-1.666;2023-09-19T17:16:00;16.80;95.80
33988;DHT22;37428;53.580;-1.666;2023-09-19T17:19:03;16.80;96.00
33988;DHT22;37428;53.580;-1.666;2023-09-19T17:22:06;16.70;96.30
33988;DHT22;37428;53.580;-1.666;2023-09-19T17:25:08;16.70;96.10
33988;DHT22;37428;53.580;-1.666;2023-09-19T17:28:14;16.70;96.20
33988;DHT22;37428;53.580;-1.666;2023-09-19T17:31:17;16.60;96.10
33988;DHT22;37428;53.580;-1.666;2023-09-19T17:34:22;16.60;96.10
33988;DHT22;37428;53.580;-1.666;2023-09-19T17:37:24;16.60;96.20
33988;DHT22;37428;53.580;-1.666;2023-09-19T17:40:26;16.50;96.30
33988;DHT22;37428;53.580;-1.666;2023-09-19T17:43:30;16.50;96.30
33988;DHT22;37428;53.580;-1.666;2023-09-19T17:46:32;16.50;96.10
33988;DHT22;37428;53.580;-1.666;2023-09-19T17:49:37;16.50;95.80
33988;DHT22;37428;53.580;-1.666;2023-09-19T17:52:41;16.50;96.00
33988;DHT22;37428;53.580;-1.666;2023-09-19T17:55:44;16.50;95.90
33988;DHT22;37428;53.580;-1.666;2023-09-19T17:58:48;16.50;95.90
33988;DHT22;37428;53.580;-1.666;2023-09-19T18:01:55;16.50;95.60
33988;DHT22;37428;53.580;-1.666;2023-09-19T18:04:57;16.50;96.00
33988;DHT22;37428;53.580;-1.666;2023-09-19T18:07:59;16.50;96.40
33988;DHT22;37428;53.580;-1.666;2023-09-19T18:11:02;16.50;96.70
33988;DHT22;37428;53.580;-1.666;2023-09-19T18:14:05;16.50;96.80
33988;DHT22;37428;53.580;-1.666;2023-09-19T18:17:07;16.50;96.60
33988;DHT22;37428;53.580;-1.666;2023-09-19T18:20:11;16.50;96.50
33988;DHT22;37428;53.580;-1.666;2023-09-19T18:23:15;16.50;96.60
33988;DHT22;37428;53.580;-1.666;2023-09-19T18:26:18;16.50;96.50
33988;DHT22;37428;53.580;-1.666;2023-09-19T18:29:23;16.40;96.80
33988;DHT22;37428;53.580;-1.666;2023-09-19T18:32:25;16.40;96.70
33988;DHT22;37428;53.580;-1.666;2023-09-19T18:35:28;16.40;96.60
33988;DHT22;37428;53.580;-1.666;2023-09-19T18:38:32;16.40;96.80
33988;DHT22;37428;53.580;-1.666;2023-09-19T18:41:34;16.40;96.80
33988;DHT22;37428;53.580;-1.666;2023-09-19T18:44:40;16.40;96.70
33988;DHT22;37428;53.580;-1.666;2023-09-19T18:47:44;16.40;97.10
33988;DHT22;37428;53.580;-1.666;2023-09-19T18:50:47;16.40;96.60
33988;DHT22;37428;53.580;-1.666;2023-09-19T18:53:50;16.30;97.10
33988;DHT22;37428;53.580;-1.666;2023-09-19T18:56:52;16.30;97.80
33988;DHT22;37428;53.580;-1.666;2023-09-19T18:59:57;16.20;98.50
33988;DHT22;37428;53.580;-1.666;2023-09-19T19:02:59;16.20;98.70
33988;DHT22;37428;53.580;-1.666;2023-09-19T19:06:04;16.10;98.90
33988;DHT22;37428;53.580;-1.666;2023-09-19T19:09:07;16.10;99.20